sensor_id;sensor_type;location;lat;lon;timestamp;temperature;humidity
47805;DHT22;33568;45.286;9.900;2022-08-19T00:01:27;25.00;95.20
47805;DHT22;33568;45.286;9.900;2022-08-19T00:04:01;25.00;95.30
47805;DHT22;33568;45.286;9.900;2022-08-19T00:06:29;25.00;95.20
47805;DHT22;33568;45.286;9.900;2022-08-19T00:08:56;25.10;95.30
47805;DHT22;33568;45.286;9.900;2022-08-19T00:11:24;25.10;95.20
47805;DHT22;33568;45.286;9.900;2022-08-19T00:13:54;25.10;95.00
47805;DHT22;33568;45.286;9.900;2022-08-19T00:16:23;25.10;95.00
47805;DHT22;33568;45.286;9.900;2022-08-19T00:18:50;25.10;94.90
47805;DHT22;33568;45.286;9.900;2022-08-19T00:21:17;25.10;95.20
47805;DHT22;33568;45.286;9.900;2022-08-19T00:23:44;25.10;94.90
47805;DHT22;33568;45.286;9.900;2022-08-19T00:26:11;25.10;94.80
47805;DHT22;33568;45.286;9.900;2022-08-19T00:28:37;25.10;94.80
47805;DHT22;33568;45.286;9.900;2022-08-19T00:31:07;25.10;94.80
47805;DHT22;33568;45.286;9.900;2022-08-19T00:33:34;25.10;94.80
47805;DHT22;33568;45.286;9.900;2022-08-19T00:36:02;25.10;94.80
47805;DHT22;33568;45.286;9.900;2022-08-19T00:38:30;25.10;94.80
47805;DHT22;33568;45.286;9.900;2022-08-19T00:40:58;25.00;94.90
47805;DHT22;33568;45.286;9.900;2022-08-19T00:43:27;25.00;94.90
47805;DHT22;33568;45.286;9.900;2022-08-19T00:45:54;25.00;94.80
47805;DHT22;33568;45.286;9.900;2022-08-19T00:48:21;25.00;94.70
47805;DHT22;33568;45.286;9.900;2022-08-19T00:50:49;24.90;94.70
47805;DHT22;33568;45.286;9.900;2022-08-19T00:53:20;24.90;94.80
47805;DHT22;33568;45.286;9.900;2022-08-19T00:55:51;24.90;94.90
47805;DHT22;33568;45.286;9.900;2022-08-19T00:58:21;24.90;94.90
47805;DHT22;33568;45.286;9.900;2022-08-19T01:00:48;24.90;94.90
47805;DHT22;33568;45.286;9.900;2022-08-19T01:03:17;25.00;94.80
47805;DHT22;33568;45.286;9.900;2022-08-19T01:05:45;25.00;94.70
47805;DHT22;33568;45.286;9.900;2022-08-19T01:08:15;25.00;94.60
47805;DHT22;33568;45.286;9.900;2022-08-19T01:10:46;25.00;94.60
47805;DHT22;33568;45.286;9.900;2022-08-19T01:13:16;25.10;94.50
47805;DHT22;33568;45.286;9.900;2022-08-19T01:15:46;25.10;94.40
47805;DHT22;33568;45.286;9.900;2022-08-19T01:18:15;25.10;94.30
47805;DHT22;33568;45.286;9.900;2022-08-19T01:20:43;25.20;94.20
47805;DHT22;33568;45.286;9.900;2022-08-19T01:23:10;25.20;94.20
47805;DHT22;33568;45.286;9.900;2022-08-19T01:25:48;25.20;94.10
47805;DHT22;33568;45.286;9.900;2022-08-19T01:28:26;25.20;94.10
47805;DHT22;33568;45.286;9.900;2022-08-19T01:30:54;25.20;93.90
47805;DHT22;33568;45.286;9.900;2022-08-19T01:33:21;25.10;94.10
47805;DHT22;33568;45.286;9.900;2022-08-19T01:35:48;25.10;94.10
47805;DHT22;33568;45.286;9.900;2022-08-19T01:38:25;25.10;94.10
47805;DHT22;33568;45.286;9.900;2022-08-19T01:40:53;25.10;93.90
47805;DHT22;33568;45.286;9.900;2022-08-19T01:43:19;25.00;93.90
47805;DHT22;33568;45.286;9.900;2022-08-19T01:45:48;24.90;94.00
47805;DHT22;33568;45.286;9.900;2022-08-19T01:48:15;24.90;94.00
47805;DHT22;33568;45.286;9.900;2022-08-19T01:50:42;24.80;94.10
47805;DHT22;33568;45.286;9.900;2022-08-19T01:53:11;24.80;94.20
47805;DHT22;33568;45.286;9.900;2022-08-19T01:55:40;24.80;94.20
47805;DHT22;33568;45.286;9.900;2022-08-19T01:58:19;24.70;94.10
47805;DHT22;33568;45.286;9.900;2022-08-19T02:00:48;24.60;94.20
47805;DHT22;33568;45.286;9.900;2022-08-19T02:03:15;24.60;94.30
47805;DHT22;33568;45.286;9.900;2022-08-19T02:05:43;24.60;94.40
47805;DHT22;33568;45.286;9.900;2022-08-19T02:08:11;24.60;94.50
47805;DHT22;33568;45.286;9.900;2022-08-19T02:10:40;24.50;94.50
47805;DHT22;33568;45.286;9.900;2022-08-19T02:13:07;24.40;94.50
47805;DHT22;33568;45.286;9.900;2022-08-19T02:15:33;24.30;94.70
47805;DHT22;33568;45.286;9.900;2022-08-19T02:18:01;24.30;94.80
47805;DHT22;33568;45.286;9.900;2022-08-19T02:20:27;24.20;94.80
47805;DHT22;33568;45.286;9.900;2022-08-19T02:22:53;24.00;95.00
47805;DHT22;33568;45.286;9.900;2022-08-19T02:25:21;23.90;95.20
47805;DHT22;33568;45.286;9.900;2022-08-19T02:27:48;24.00;95.40
47805;DHT22;33568;45.286;9.900;2022-08-19T02:30:15;24.10;95.40
47805;DHT22;33568;45.286;9.900;2022-08-19T02:32:42;24.20;95.40
47805;DHT22;33568;45.286;9.900;2022-08-19T02:35:13;24.20;95.30
47805;DHT22;33568;45.286;9.900;2022-08-19T02:37:41;24.20;95.20
47805;DHT22;33568;45.286;9.900;2022-08-19T02:40:27;24.20;95.10
47805;DHT22;33568;45.286;9.900;2022-08-19T02:42:54;24.20;95.20
47805;DHT22;33568;45.286;9.900;2022-08-19T02:45:20;24.20;95.30
47805;DHT22;33568;45.286;9.900;2022-08-19T02:47:48;24.30;95.30
47805;DHT22;33568;45.286;9.900;2022-08-19T02:50:14;24.40;95.10
47805;DHT22;33568;45.286;9.900;2022-08-19T02:52:41;24.40;95.00
47805;DHT22;33568;45.286;9.900;2022-08-19T02:55:08;24.50;94.90
47805;DHT22;33568;45.286;9.900;2022-08-19T02:57:37;24.50;94.80
47805;DHT22;33568;45.286;9.900;2022-08-19T03:00:06;24.50;94.80
47805;DHT22;33568;45.286;9.900;2022-08-19T03:02:34;24.50;94.80
47805;DHT22;33568;45.286;9.900;2022-08-19T03:05:02;24.50;94.70
47805;DHT22;33568;45.286;9.900;2022-08-19T03:07:29;24.50;94.70
47805;DHT22;33568;45.286;9.900;2022-08-19T03:09:59;24.50;94.70
47805;DHT22;33568;45.286;9.900;2022-08-19T03:12:25;24.60;94.70
47805;DHT22;33568;45.286;9.900;2022-08-19T03:14:51;24.60;94.70
47805;DHT22;33568;45.286;9.900;2022-08-19T03:17:19;24.50;94.70
47805;DHT22;33568;45.286;9.900;2022-08-19T03:19:45;24.70;94.70
47805;DHT22;33568;45.286;9.900;2022-08-19T03:22:12;24.80;94.60
47805;DHT22;33568;45.286;9.900;2022-08-19T03:24:38;24.80;94.40
47805;DHT22;33568;45.286;9.900;2022-08-19T03:27:05;24.80;94.40
47805;DHT22;33568;45.286;9.900;2022-08-19T03:29:32;24.80;94.40
47805;DHT22;33568;45.286;9.900;2022-08-19T03:31:59;24.60;94.50
47805;DHT22;33568;45.286;9.900;2022-08-19T03:34:30;24.30;94.90
47805;DHT22;33568;45.286;9.900;2022-08-19T03:37:03;24.10;95.40
47805;DHT22;33568;45.286;9.900;2022-08-19T03:39:31;24.20;95.50
47805;DHT22;33568;45.286;9.900;2022-08-19T03:41:58;24.20;95.50
47805;DHT22;33568;45.286;9.900;2022-08-19T03:44:26;24.40;95.40
47805;DHT22;33568;45.286;9.900;2022-08-19T03:46:55;24.60;95.20
47805;DHT22;33568;45.286;9.900;2022-08-19T03:49:26;24.70;95.10
47805;DHT22;33568;45.286;9.900;2022-08-19T03:51:55;24.70;95.00
47805;DHT22;33568;45.286;9.900;2022-08-19T03:54:24;24.70;95.00
47805;DHT22;33568;45.286;9.900;2022-08-19T03:56:52;24.70;95.00
47805;DHT22;33568;45.286;9.900;2022-08-19T03:59:28;24.70;95.00
47805;DHT22;33568;45.286;9.900;2022-08-19T04:01:56;24.50;95.10
47805;DHT22;33568;45.286;9.900;2022-08-19T04:04:23;24.40;95.30
47805;DHT22;33568;45.286;9.900;2022-08-19T04:06:51;24.40;95.40
47805;DHT22;33568;45.286;9.900;2022-08-19T04:09:18;24.50;95.40
47805;DHT22;33568;45.286;9.900;2022-08-19T04:11:48;24.50;95.40
47805;DHT22;33568;45.286;9.900;2022-08-19T04:14:18;24.50;95.40
47805;DHT22;33568;45.286;9.900;2022-08-19T04:16:46;24.50;95.40
47805;DHT22;33568;45.286;9.900;2022-08-19T04:19:14;24.50;95.40
47805;DHT22;33568;45.286;9.900;2022-08-19T04:21:43;24.50;95.40
47805;DHT22;33568;45.286;9.900;2022-08-19T04:24:10;24.60;95.40
47805;DHT22;33568;45.286;9.900;2022-08-19T04:26:37;24.60;95.30
47805;DHT22;33568;45.286;9.900;2022-08-19T04:29:07;24.40;95.30
47805;DHT22;33568;45.286;9.900;2022-08-19T04:31:34;24.20;95.50
47805;DHT22;33568;45.286;9.900;2022-08-19T04:34:06;23.80;96.10
47805;DHT22;33568;45.286;9.900;2022-08-19T04:36:35;23.60;96.80
47805;DHT22;33568;45.286;9.900;2022-08-19T04:39:07;23.30;97.30
47805;DHT22;33568;45.286;9.900;2022-08-19T04:41:34;23.10;97.80
47805;DHT22;33568;45.286;9.900;2022-08-19T04:44:18;23.00;98.10
47805;DHT22;33568;45.286;9.900;2022-08-19T04:46:46;22.80;98.40
47805;DHT22;33568;45.286;9.900;2022-08-19T04:49:16;22.70;98.70
47805;DHT22;33568;45.286;9.900;2022-08-19T04:51:45;22.70;98.90
47805;DHT22;33568;45.286;9.900;2022-08-19T04:54:15;22.60;99.00
47805;DHT22;33568;45.286;9.900;2022-08-19T04:56:41;22.60;99.10
47805;DHT22;33568;45.286;9.900;2022-08-19T04:59:08;22.80;99.20
47805;DHT22;33568;45.286;9.900;2022-08-19T05:01:34;23.10;98.90
47805;DHT22;33568;45.286;9.900;2022-08-19T05:04:05;23.20;98.30
47805;DHT22;33568;45.286;9.900;2022-08-19T05:06:33;23.20;98.10
47805;DHT22;33568;45.286;9.900;2022-08-19T05:09:04;23.10;98.00
47805;DHT22;33568;45.286;9.900;2022-08-19T05:11:35;23.00;97.60
47805;DHT22;33568;45.286;9.900;2022-08-19T05:14:06;22.90;97.40
47805;DHT22;33568;45.286;9.900;2022-08-19T05:16:33;22.70;97.10
47805;DHT22;33568;45.286;9.900;2022-08-19T05:18:59;22.60;97.20
47805;DHT22;33568;45.286;9.900;2022-08-19T05:21:45;22.50;97.20
47805;DHT22;33568;45.286;9.900;2022-08-19T05:24:30;22.50;97.30
47805;DHT22;33568;45.286;9.900;2022-08-19T05:27:00;22.60;97.40
47805;DHT22;33568;45.286;9.900;2022-08-19T05:29:29;22.80;97.70
47805;DHT22;33568;45.286;9.900;2022-08-19T05:31:57;23.10;97.60
47805;DHT22;33568;45.286;9.900;2022-08-19T05:34:26;23.30;97.30
47805;DHT22;33568;45.286;9.900;2022-08-19T05:36:57;23.60;97.00
47805;DHT22;33568;45.286;9.900;2022-08-19T05:39:27;23.70;96.60
47805;DHT22;33568;45.286;9.900;2022-08-19T05:42:07;23.80;96.40
47805;DHT22;33568;45.286;9.900;2022-08-19T05:44:36;23.80;96.10
47805;DHT22;33568;45.286;9.900;2022-08-19T05:47:05;23.90;96.10
47805;DHT22;33568;45.286;9.900;2022-08-19T05:49:34;23.90;96.10
47805;DHT22;33568;45.286;9.900;2022-08-19T05:52:08;23.90;95.90
47805;DHT22;33568;45.286;9.900;2022-08-19T05:54:37;23.90;95.70
47805;DHT22;33568;45.286;9.900;2022-08-19T05:57:06;23.80;95.80
47805;DHT22;33568;45.286;9.900;2022-08-19T05:59:33;23.80;95.90
47805;DHT22;33568;45.286;9.900;2022-08-19T06:02:02;23.80;95.90
47805;DHT22;33568;45.286;9.900;2022-08-19T06:04:29;23.80;95.80
47805;DHT22;33568;45.286;9.900;2022-08-19T06:06:55;23.70;95.80
47805;DHT22;33568;45.286;9.900;2022-08-19T06:09:22;23.70;96.00
47805;DHT22;33568;45.286;9.900;2022-08-19T06:11:51;23.80;95.90
47805;DHT22;33568;45.286;9.900;2022-08-19T06:14:25;23.90;95.50
47805;DHT22;33568;45.286;9.900;2022-08-19T06:16:51;23.80;95.10
47805;DHT22;33568;45.286;9.900;2022-08-19T06:19:20;23.70;95.10
47805;DHT22;33568;45.286;9.900;2022-08-19T06:21:49;23.60;95.20
47805;DHT22;33568;45.286;9.900;2022-08-19T06:24:21;23.50;95.40
47805;DHT22;33568;45.286;9.900;2022-08-19T06:26:51;23.50;95.40
47805;DHT22;33568;45.286;9.900;2022-08-19T06:29:21;23.60;95.20
47805;DHT22;33568;45.286;9.900;2022-08-19T06:31:51;23.50;94.80
47805;DHT22;33568;45.286;9.900;2022-08-19T06:34:18;23.50;94.90
47805;DHT22;33568;45.286;9.900;2022-08-19T06:36:48;23.60;94.80
47805;DHT22;33568;45.286;9.900;2022-08-19T06:39:17;23.70;94.60
47805;DHT22;33568;45.286;9.900;2022-08-19T06:41:49;23.70;94.50
47805;DHT22;33568;45.286;9.900;2022-08-19T06:44:19;23.70;94.40
47805;DHT22;33568;45.286;9.900;2022-08-19T06:46:46;23.80;94.30
47805;DHT22;33568;45.286;9.900;2022-08-19T06:49:16;23.80;94.30
47805;DHT22;33568;45.286;9.900;2022-08-19T06:51:44;23.80;94.20
47805;DHT22;33568;45.286;9.900;2022-08-19T06:54:12;23.80;94.10
47805;DHT22;33568;45.286;9.900;2022-08-19T06:56:38;23.80;94.10
47805;DHT22;33568;45.286;9.900;2022-08-19T06:59:10;23.80;94.10
47805;DHT22;33568;45.286;9.900;2022-08-19T07:01:43;23.80;94.00
47805;DHT22;33568;45.286;9.900;2022-08-19T07:04:13;23.90;93.80
47805;DHT22;33568;45.286;9.900;2022-08-19T07:06:40;23.90;93.80
47805;DHT22;33568;45.286;9.900;2022-08-19T07:09:08;23.90;93.80
47805;DHT22;33568;45.286;9.900;2022-08-19T07:11:34;23.90;93.80
47805;DHT22;33568;45.286;9.900;2022-08-19T07:14:03;23.90;93.80
47805;DHT22;33568;45.286;9.900;2022-08-19T07:16:30;24.00;93.80
47805;DHT22;33568;45.286;9.900;2022-08-19T07:18:56;24.10;93.90
47805;DHT22;33568;45.286;9.900;2022-08-19T07:21:25;24.30;94.00
47805;DHT22;33568;45.286;9.900;2022-08-19T07:23:55;24.30;94.10
47805;DHT22;33568;45.286;9.900;2022-08-19T07:26:25;24.50;94.40
47805;DHT22;33568;45.286;9.900;2022-08-19T07:28:54;24.60;94.50
47805;DHT22;33568;45.286;9.900;2022-08-19T07:31:23;24.70;94.80
47805;DHT22;33568;45.286;9.900;2022-08-19T07:33:51;24.80;95.00
47805;DHT22;33568;45.286;9.900;2022-08-19T07:36:21;24.80;95.10
47805;DHT22;33568;45.286;9.900;2022-08-19T07:38:49;24.80;95.40
47805;DHT22;33568;45.286;9.900;2022-08-19T07:41:23;24.80;95.80
47805;DHT22;33568;45.286;9.900;2022-08-19T07:43:51;24.70;95.60
47805;DHT22;33568;45.286;9.900;2022-08-19T07:46:20;24.60;95.80
47805;DHT22;33568;45.286;9.900;2022-08-19T07:48:48;24.60;96.10
47805;DHT22;33568;45.286;9.900;2022-08-19T07:51:19;24.70;96.30
47805;DHT22;33568;45.286;9.900;2022-08-19T07:53:47;24.70;96.20
47805;DHT22;33568;45.286;9.900;2022-08-19T07:56:18;24.60;96.10
47805;DHT22;33568;45.286;9.900;2022-08-19T07:58:46;24.60;96.30
47805;DHT22;33568;45.286;9.900;2022-08-19T08:01:15;24.70;96.50
47805;DHT22;33568;45.286;9.900;2022-08-19T08:03:42;24.80;96.60
47805;DHT22;33568;45.286;9.900;2022-08-19T08:06:28;24.80;96.50
47805;DHT22;33568;45.286;9.900;2022-08-19T08:09:15;24.90;96.50
47805;DHT22;33568;45.286;9.900;2022-08-19T08:11:57;25.10;96.40
47805;DHT22;33568;45.286;9.900;2022-08-19T08:14:47;25.20;96.30
47805;DHT22;33568;45.286;9.900;2022-08-19T08:17:16;25.50;95.80
47805;DHT22;33568;45.286;9.900;2022-08-19T08:19:44;25.60;95.70
47805;DHT22;33568;45.286;9.900;2022-08-19T08:22:12;25.80;95.40
47805;DHT22;33568;45.286;9.900;2022-08-19T08:25:13;25.80;95.10
47805;DHT22;33568;45.286;9.900;2022-08-19T08:27:41;25.80;95.10
47805;DHT22;33568;45.286;9.900;2022-08-19T08:30:14;25.80;95.20
47805;DHT22;33568;45.286;9.900;2022-08-19T08:32:41;25.90;95.10
47805;DHT22;33568;45.286;9.900;2022-08-19T08:35:11;25.80;95.00
47805;DHT22;33568;45.286;9.900;2022-08-19T08:37:38;25.90;95.00
47805;DHT22;33568;45.286;9.900;2022-08-19T08:40:08;25.90;94.90
47805;DHT22;33568;45.286;9.900;2022-08-19T08:42:40;25.80;94.90
47805;DHT22;33568;45.286;9.900;2022-08-19T08:45:17;25.80;94.80
47805;DHT22;33568;45.286;9.900;2022-08-19T08:47:50;25.70;94.90
47805;DHT22;33568;45.286;9.900;2022-08-19T08:50:38;25.80;94.90
47805;DHT22;33568;45.286;9.900;2022-08-19T08:53:06;25.80;94.80
47805;DHT22;33568;45.286;9.900;2022-08-19T08:55:34;25.80;94.90
47805;DHT22;33568;45.286;9.900;2022-08-19T08:58:24;25.90;94.80
47805;DHT22;33568;45.286;9.900;2022-08-19T09:00:52;25.80;94.80
47805;DHT22;33568;45.286;9.900;2022-08-19T09:03:22;25.80;94.90
47805;DHT22;33568;45.286;9.900;2022-08-19T09:09:04;25.90;94.00
47805;DHT22;33568;45.286;9.900;2022-08-19T09:14:31;25.80;94.00
47805;DHT22;33568;45.286;9.900;2022-08-19T09:16:59;25.80;94.30
47805;DHT22;33568;45.286;9.900;2022-08-19T09:19:30;25.90;94.40
47805;DHT22;33568;45.286;9.900;2022-08-19T09:21:56;26.00;94.10
47805;DHT22;33568;45.286;9.900;2022-08-19T09:24:22;26.00;93.70
47805;DHT22;33568;45.286;9.900;2022-08-19T09:26:49;26.00;93.80
47805;DHT22;33568;45.286;9.900;2022-08-19T09:29:16;26.00;93.70
47805;DHT22;33568;45.286;9.900;2022-08-19T09:31:42;26.00;93.80
47805;DHT22;33568;45.286;9.900;2022-08-19T09:34:08;26.10;93.80
47805;DHT22;33568;45.286;9.900;2022-08-19T09:36:35;26.20;93.60
47805;DHT22;33568;45.286;9.900;2022-08-19T09:39:05;26.30;93.50
47805;DHT22;33568;45.286;9.900;2022-08-19T09:41:33;26.50;93.30
47805;DHT22;33568;45.286;9.900;2022-08-19T09:44:00;26.70;93.00
47805;DHT22;33568;45.286;9.900;2022-08-19T09:46:28;26.80;92.60
47805;DHT22;33568;45.286;9.900;2022-08-19T09:48:59;26.80;92.30
47805;DHT22;33568;45.286;9.900;2022-08-19T09:51:26;26.80;92.20
47805;DHT22;33568;45.286;9.900;2022-08-19T09:53:55;26.80;92.10
47805;DHT22;33568;45.286;9.900;2022-08-19T09:56:24;26.80;91.90
47805;DHT22;33568;45.286;9.900;2022-08-19T09:58:51;26.90;91.90
47805;DHT22;33568;45.286;9.900;2022-08-19T10:01:23;27.20;91.40
47805;DHT22;33568;45.286;9.900;2022-08-19T10:03:53;27.40;91.10
47805;DHT22;33568;45.286;9.900;2022-08-19T10:06:27;27.40;90.80
47805;DHT22;33568;45.286;9.900;2022-08-19T10:08:57;27.30;90.50
47805;DHT22;33568;45.286;9.900;2022-08-19T10:11:23;27.40;90.70
47805;DHT22;33568;45.286;9.900;2022-08-19T10:13:50;27.50;90.50
47805;DHT22;33568;45.286;9.900;2022-08-19T10:16:21;27.50;90.20
47805;DHT22;33568;45.286;9.900;2022-08-19T10:18:49;27.50;90.20
47805;DHT22;33568;45.286;9.900;2022-08-19T10:21:27;27.50;90.00
47805;DHT22;33568;45.286;9.900;2022-08-19T10:23:56;27.50;89.40
47805;DHT22;33568;45.286;9.900;2022-08-19T10:26:29;27.50;90.00
47805;DHT22;33568;45.286;9.900;2022-08-19T10:28:58;27.40;89.20
47805;DHT22;33568;45.286;9.900;2022-08-19T10:31:27;27.30;88.90
47805;DHT22;33568;45.286;9.900;2022-08-19T10:33:55;27.10;88.60
47805;DHT22;33568;45.286;9.900;2022-08-19T10:36:33;26.90;89.50
47805;DHT22;33568;45.286;9.900;2022-08-19T10:39:07;26.80;90.00
47805;DHT22;33568;45.286;9.900;2022-08-19T10:41:37;26.70;90.00
47805;DHT22;33568;45.286;9.900;2022-08-19T10:44:08;26.80;90.30
47805;DHT22;33568;45.286;9.900;2022-08-19T10:46:39;26.80;90.30
47805;DHT22;33568;45.286;9.900;2022-08-19T10:49:09;27.00;90.20
47805;DHT22;33568;45.286;9.900;2022-08-19T10:51:36;27.20;89.90
47805;DHT22;33568;45.286;9.900;2022-08-19T10:54:21;27.50;89.00
47805;DHT22;33568;45.286;9.900;2022-08-19T10:56:48;27.50;88.10
47805;DHT22;33568;45.286;9.900;2022-08-19T10:59:25;27.40;88.00
47805;DHT22;33568;45.286;9.900;2022-08-19T11:01:58;27.10;87.50
47805;DHT22;33568;45.286;9.900;2022-08-19T11:04:26;27.10;89.10
47805;DHT22;33568;45.286;9.900;2022-08-19T11:06:53;27.20;89.30
47805;DHT22;33568;45.286;9.900;2022-08-19T11:09:23;27.30;88.60
47805;DHT22;33568;45.286;9.900;2022-08-19T11:11:52;27.40;88.10
47805;DHT22;33568;45.286;9.900;2022-08-19T11:14:20;27.70;87.50
47805;DHT22;33568;45.286;9.900;2022-08-19T11:16:51;27.90;86.50
47805;DHT22;33568;45.286;9.900;2022-08-19T11:19:20;28.10;85.50
47805;DHT22;33568;45.286;9.900;2022-08-19T11:21:50;28.30;85.40
47805;DHT22;33568;45.286;9.900;2022-08-19T11:24:19;28.50;84.70
47805;DHT22;33568;45.286;9.900;2022-08-19T11:26:47;28.80;84.10
47805;DHT22;33568;45.286;9.900;2022-08-19T11:29:20;28.80;83.10
47805;DHT22;33568;45.286;9.900;2022-08-19T11:31:48;28.70;83.00
47805;DHT22;33568;45.286;9.900;2022-08-19T11:34:19;28.70;83.10
47805;DHT22;33568;45.286;9.900;2022-08-19T11:36:47;28.70;83.10
47805;DHT22;33568;45.286;9.900;2022-08-19T11:39:16;28.80;83.50
47805;DHT22;33568;45.286;9.900;2022-08-19T11:41:44;28.90;82.00
47805;DHT22;33568;45.286;9.900;2022-08-19T11:44:11;28.90;81.20
47805;DHT22;33568;45.286;9.900;2022-08-19T11:46:44;28.70;81.40
47805;DHT22;33568;45.286;9.900;2022-08-19T11:49:14;28.50;81.30
47805;DHT22;33568;45.286;9.900;2022-08-19T11:51:41;28.40;82.00
47805;DHT22;33568;45.286;9.900;2022-08-19T11:54:09;28.20;82.70
47805;DHT22;33568;45.286;9.900;2022-08-19T11:56:37;28.20;83.40
47805;DHT22;33568;45.286;9.900;2022-08-19T11:59:04;28.00;83.70
47805;DHT22;33568;45.286;9.900;2022-08-19T12:01:30;27.90;83.90
47805;DHT22;33568;45.286;9.900;2022-08-19T12:03:58;27.90;83.90
47805;DHT22;33568;45.286;9.900;2022-08-19T12:06:28;27.90;83.90
47805;DHT22;33568;45.286;9.900;2022-08-19T12:08:57;27.90;84.10
47805;DHT22;33568;45.286;9.900;2022-08-19T12:11:24;28.00;83.70
47805;DHT22;33568;45.286;9.900;2022-08-19T12:13:50;28.00;82.90
47805;DHT22;33568;45.286;9.900;2022-08-19T12:16:19;28.20;82.50
47805;DHT22;33568;45.286;9.900;2022-08-19T12:18:46;28.20;82.40
47805;DHT22;33568;45.286;9.900;2022-08-19T12:21:14;28.20;81.30
47805;DHT22;33568;45.286;9.900;2022-08-19T12:23:42;28.40;80.60
47805;DHT22;33568;45.286;9.900;2022-08-19T12:26:09;28.70;80.00
47805;DHT22;33568;45.286;9.900;2022-08-19T12:28:36;29.10;79.70
47805;DHT22;33568;45.286;9.900;2022-08-19T12:31:05;29.40;78.50
47805;DHT22;33568;45.286;9.900;2022-08-19T12:33:31;29.50;76.70
47805;DHT22;33568;45.286;9.900;2022-08-19T12:36:06;29.40;76.30
47805;DHT22;33568;45.286;9.900;2022-08-19T12:38:33;29.40;75.70
47805;DHT22;33568;45.286;9.900;2022-08-19T12:41:04;29.40;76.30
47805;DHT22;33568;45.286;9.900;2022-08-19T12:43:34;29.60;76.00
47805;DHT22;33568;45.286;9.900;2022-08-19T12:46:02;29.70;75.50
47805;DHT22;33568;45.286;9.900;2022-08-19T12:48:32;29.90;75.50
47805;DHT22;33568;45.286;9.900;2022-08-19T12:50:58;30.10;75.20
47805;DHT22;33568;45.286;9.900;2022-08-19T12:53:25;30.10;74.60
47805;DHT22;33568;45.286;9.900;2022-08-19T12:55:56;30.20;73.80
47805;DHT22;33568;45.286;9.900;2022-08-19T12:58:23;30.10;73.50
47805;DHT22;33568;45.286;9.900;2022-08-19T13:00:50;30.20;74.00
47805;DHT22;33568;45.286;9.900;2022-08-19T13:03:16;30.20;73.70
47805;DHT22;33568;45.286;9.900;2022-08-19T13:05:43;30.20;73.30
47805;DHT22;33568;45.286;9.900;2022-08-19T13:08:09;30.20;72.50
47805;DHT22;33568;45.286;9.900;2022-08-19T13:10:37;30.20;72.90
47805;DHT22;33568;45.286;9.900;2022-08-19T13:13:07;30.30;73.30
47805;DHT22;33568;45.286;9.900;2022-08-19T13:15:39;30.30;72.80
47805;DHT22;33568;45.286;9.900;2022-08-19T13:18:09;30.20;72.70
47805;DHT22;33568;45.286;9.900;2022-08-19T13:20:37;30.20;73.00
47805;DHT22;33568;45.286;9.900;2022-08-19T13:23:04;30.30;72.50
47805;DHT22;33568;45.286;9.900;2022-08-19T13:25:31;30.30;72.30
47805;DHT22;33568;45.286;9.900;2022-08-19T13:27:59;30.30;71.60
47805;DHT22;33568;45.286;9.900;2022-08-19T13:30:27;30.10;71.60
47805;DHT22;33568;45.286;9.900;2022-08-19T13:33:13;30.30;72.50
47805;DHT22;33568;45.286;9.900;2022-08-19T13:35:53;30.40;72.40
47805;DHT22;33568;45.286;9.900;2022-08-19T13:38:24;30.60;71.70
47805;DHT22;33568;45.286;9.900;2022-08-19T13:40:51;30.60;71.90
47805;DHT22;33568;45.286;9.900;2022-08-19T13:43:19;30.70;71.90
47805;DHT22;33568;45.286;9.900;2022-08-19T13:45:48;30.80;71.90
47805;DHT22;33568;45.286;9.900;2022-08-19T13:48:15;30.90;71.80
47805;DHT22;33568;45.286;9.900;2022-08-19T13:50:44;30.80;71.70
47805;DHT22;33568;45.286;9.900;2022-08-19T13:53:11;30.70;71.50
47805;DHT22;33568;45.286;9.900;2022-08-19T13:55:39;30.60;71.60
47805;DHT22;33568;45.286;9.900;2022-08-19T13:58:06;30.50;71.20
47805;DHT22;33568;45.286;9.900;2022-08-19T14:00:41;30.40;71.60
47805;DHT22;33568;45.286;9.900;2022-08-19T14:03:08;30.40;71.70
47805;DHT22;33568;45.286;9.900;2022-08-19T14:05:35;30.50;71.20
47805;DHT22;33568;45.286;9.900;2022-08-19T14:08:04;30.60;69.70
47805;DHT22;33568;45.286;9.900;2022-08-19T14:10:30;30.70;70.10
47805;DHT22;33568;45.286;9.900;2022-08-19T14:13:00;30.70;69.90
47805;DHT22;33568;45.286;9.900;2022-08-19T14:15:27;30.70;69.80
47805;DHT22;33568;45.286;9.900;2022-08-19T14:17:54;30.90;69.90
47805;DHT22;33568;45.286;9.900;2022-08-19T14:20:21;30.90;69.60
47805;DHT22;33568;45.286;9.900;2022-08-19T14:22:48;30.90;68.80
47805;DHT22;33568;45.286;9.900;2022-08-19T14:25:21;30.90;68.80
47805;DHT22;33568;45.286;9.900;2022-08-19T14:27:51;30.90;67.30
47805;DHT22;33568;45.286;9.900;2022-08-19T14:30:25;30.90;67.80
47805;DHT22;33568;45.286;9.900;2022-08-19T14:32:57;30.80;67.40
47805;DHT22;33568;45.286;9.900;2022-08-19T14:35:29;30.70;67.20
47805;DHT22;33568;45.286;9.900;2022-08-19T14:37:55;30.50;67.30
47805;DHT22;33568;45.286;9.900;2022-08-19T14:40:26;30.40;68.90
47805;DHT22;33568;45.286;9.900;2022-08-19T14:42:55;30.30;68.20
47805;DHT22;33568;45.286;9.900;2022-08-19T14:45:27;30.20;67.90
47805;DHT22;33568;45.286;9.900;2022-08-19T14:47:53;30.30;68.00
47805;DHT22;33568;45.286;9.900;2022-08-19T14:50:21;30.40;67.60
47805;DHT22;33568;45.286;9.900;2022-08-19T14:52:48;30.40;66.80
47805;DHT22;33568;45.286;9.900;2022-08-19T14:55:16;30.30;67.50
47805;DHT22;33568;45.286;9.900;2022-08-19T14:57:43;30.30;68.50
47805;DHT22;33568;45.286;9.900;2022-08-19T15:00:11;30.40;69.40
47805;DHT22;33568;45.286;9.900;2022-08-19T15:02:40;30.40;68.50
47805;DHT22;33568;45.286;9.900;2022-08-19T15:05:07;30.50;67.50
47805;DHT22;33568;45.286;9.900;2022-08-19T15:07:36;30.50;66.80
47805;DHT22;33568;45.286;9.900;2022-08-19T15:10:03;30.60;66.60
47805;DHT22;33568;45.286;9.900;2022-08-19T15:12:31;30.60;66.20
47805;DHT22;33568;45.286;9.900;2022-08-19T15:14:58;30.60;65.80
47805;DHT22;33568;45.286;9.900;2022-08-19T15:17:24;30.60;66.00
47805;DHT22;33568;45.286;9.900;2022-08-19T15:19:53;30.70;66.40
47805;DHT22;33568;45.286;9.900;2022-08-19T15:22:19;30.80;66.90
47805;DHT22;33568;45.286;9.900;2022-08-19T15:24:46;31.00;66.80
47805;DHT22;33568;45.286;9.900;2022-08-19T15:27:13;31.00;65.80
47805;DHT22;33568;45.286;9.900;2022-08-19T15:29:40;31.10;66.10
47805;DHT22;33568;45.286;9.900;2022-08-19T15:32:07;31.00;66.00
47805;DHT22;33568;45.286;9.900;2022-08-19T15:34:34;31.00;65.90
47805;DHT22;33568;45.286;9.900;2022-08-19T15:37:01;30.90;67.00
47805;DHT22;33568;45.286;9.900;2022-08-19T15:39:31;31.00;68.10
47805;DHT22;33568;45.286;9.900;2022-08-19T15:41:57;30.90;68.20
47805;DHT22;33568;45.286;9.900;2022-08-19T15:44:27;30.70;67.50
47805;DHT22;33568;45.286;9.900;2022-08-19T15:46:53;30.50;67.40
47805;DHT22;33568;45.286;9.900;2022-08-19T15:49:23;30.50;66.80